Time;durP1;ratioP1;P1;durP2;ratioP2;P2;SDS_P1;SDS_P2;PMS_P1;PMS_P2;Temp;Humidity;BMP_temperature;BMP_pressure;BME280_temperature;BME280_humidity;BME280_pressure;Samples;Min_cycle;Max_cycle;Signal;HPM_P1;HPM_P2
2023/09/26 00:01:29;;;;;;;;;;;;;;;17.29;59.78;101913.13;104911;1289;61381;-55
2023/09/26 00:04:15;;;;;;;;;;;;;;;17.29;59.89;101911.57;106300;1289;59324;-56
2023/09/26 00:07:02;;;;;;;;;;;;;;;17.29;59.94;101909.13;106277;1289;74357;-54
2023/09/26 00:09:48;;;;;;;;;;;;;;;17.29;60.19;101910.36;106345;1291;67445;-56
2023/09/26 00:12:33;;;;;;;;;;;;;;;17.30;60.01;101905.10;106307;1290;71405;-56
2023/09/26 00:15:19;;;;;;;;;;;;;;;17.31;60.13;101902.27;105946;1290;60481;-55
2023/09/26 00:18:06;;;;;;;;;;;;;;;17.32;60.38;101903.14;104979;1289;61192;-55
2023/09/26 00:20:52;;;;;;;;;;;;;;;17.32;60.53;101905.40;105016;1294;74949;-55
2023/09/26 00:23:38;;;;;;;;;;;;;;;17.31;60.25;101907.33;105072;1292;67634;-55
2023/09/26 00:26:25;;;;;;;;;;;;;;;17.30;60.28;101899.00;104999;1294;71396;-55
2023/09/26 00:29:11;;;;;;;;;;;;;;;17.28;60.46;101899.73;105045;1289;61222;-55
2023/09/26 00:31:59;;;;;;;;;;;;;;;17.28;60.51;101898.36;105025;1289;61564;-55
2023/09/26 00:34:45;;;;;;;;;;;;;;;17.26;60.45;101901.88;104955;1291;73197;-55
2023/09/26 00:37:31;;;;;;;;;;;;;;;17.24;60.67;101899.31;105032;1289;73134;-54
2023/09/26 00:40:22;;;;;;;;;;;;;;;17.23;60.64;101901.95;105037;1293;74580;-55
2023/09/26 00:43:08;;;;;;;;;;;;;;;17.22;60.66;101903.54;105005;1289;61164;-55
2023/09/26 00:45:55;;;;;;;;;;;;;;;17.19;60.84;101902.91;105038;1289;61718;-55
2023/09/26 00:48:42;;;;;;;;;;;;;;;17.16;60.74;101906.48;106291;1289;73411;-56
2023/09/26 00:51:29;;;;;;;;;;;;;;;17.13;60.92;101903.77;106340;1288;67148;-54
2023/09/26 00:54:15;;;;;;;;;;;;;;;17.11;61.02;101905.03;106364;1288;71368;-56
2023/09/26 00:57:01;;;;;;;;;;;;;;;17.12;61.31;101901.01;106256;1289;59859;-56
2023/09/26 00:59:47;;;;;;;;;;;;;;;17.13;61.21;101902.56;106275;1289;58805;-56
2023/09/26 01:02:33;;;;;;;;;;;;;;;17.12;61.33;101899.43;106295;1288;74565;-55
2023/09/26 01:05:18;;;;;;;;;;;;;;;17.12;61.29;101895.61;106334;1289;67403;-55
2023/09/26 01:08:05;;;;;;;;;;;;;;;17.12;61.57;101897.88;105253;1289;71388;-55
2023/09/26 01:10:51;;;;;;;;;;;;;;;17.12;61.52;101892.99;106276;1289;59180;-56
2023/09/26 01:13:36;;;;;;;;;;;;;;;17.10;61.63;101894.25;106337;1289;58823;-56
2023/09/26 01:16:22;;;;;;;;;;;;;;;17.08;61.41;101896.39;106322;1289;74583;-56
2023/09/26 01:19:08;;;;;;;;;;;;;;;17.08;61.64;101897.61;106289;1292;68440;-55
2023/09/26 01:21:54;;;;;;;;;;;;;;;17.07;61.54;101897.81;106321;1294;71355;-56
2023/09/26 01:24:40;;;;;;;;;;;;;;;17.05;61.76;101897.16;106318;1289;59876;-56
2023/09/26 01:27:26;;;;;;;;;;;;;;;17.05;61.89;101895.41;106352;1289;59307;-55
2023/09/26 01:30:12;;;;;;;;;;;;;;;17.02;61.70;101895.48;106316;1289;73275;-56
2023/09/26 01:32:58;;;;;;;;;;;;;;;17.02;62.14;101895.65;106336;1289;68421;-56
2023/09/26 01:35:44;;;;;;;;;;;;;;;17.03;62.19;101895.11;106315;1289;72584;-55
2023/09/26 01:38:30;;;;;;;;;;;;;;;17.03;62.01;101897.55;106301;1288;58952;-56
2023/09/26 01:41:15;;;;;;;;;;;;;;;17.00;62.13;101896.73;106331;1289;59814;-55
2023/09/26 01:44:01;;;;;;;;;;;;;;;17.00;62.34;101895.71;106277;1289;74317;-56
2023/09/26 01:46:47;;;;;;;;;;;;;;;17.00;62.54;101895.18;106215;1289;67881;-56
2023/09/26 01:49:35;;;;;;;;;;;;;;;16.99;62.39;101891.70;106285;1289;71455;-56
2023/09/26 01:52:20;;;;;;;;;;;;;;;16.98;62.23;101887.39;106288;1289;58921;-56
2023/09/26 01:55:07;;;;;;;;;;;;;;;16.95;62.43;101888.84;106279;1289;59057;-56
2023/09/26 01:57:53;;;;;;;;;;;;;;;16.93;62.37;101891.67;106348;1289;73446;-56
2023/09/26 02:00:39;;;;;;;;;;;;;;;16.92;62.41;101885.09;106282;1289;67681;-55
2023/09/26 02:03:25;;;;;;;;;;;;;;;16.88;62.42;101881.67;106269;1289;70201;-55
2023/09/26 02:06:11;;;;;;;;;;;;;;;16.87;62.63;101876.65;106293;1293;58999;-56
2023/09/26 02:08:57;;;;;;;;;;;;;;;16.85;62.61;101872.16;106291;1289;59114;-56
2023/09/26 02:11:43;;;;;;;;;;;;;;;16.82;62.66;101868.05;106314;1288;73229;-56
2023/09/26 02:14:28;;;;;;;;;;;;;;;16.80;62.90;101871.75;106316;1289;68361;-56
2023/09/26 02:17:14;;;;;;;;;;;;;;;16.79;62.87;101869.68;106286;1289;71407;-56
2023/09/26 02:20:06;;;;;;;;;;;;;;;16.77;62.94;101868.85;106250;1289;59185;-55
2023/09/26 02:22:52;;;;;;;;;;;;;;;16.75;63.19;101869.59;106280;1289;59556;-55
2023/09/26 02:25:38;;;;;;;;;;;;;;;16.74;63.00;101869.10;106312;1289;74358;-56
2023/09/26 02:28:24;;;;;;;;;;;;;;;16.73;62.95;101871.73;105053;1293;67469;-55
2023/09/26 02:31:15;;;;;;;;;;;;;;;16.71;63.14;101869.17;105000;1289;75490;-54
2023/09/26 02:34:01;;;;;;;;;;;;;;;16.68;63.43;101868.88;105294;1289;61113;-56
2023/09/26 02:36:47;;;;;;;;;;;;;;;16.64;63.54;101864.79;104979;1292;61290;-55
2023/09/26 02:39:33;;;;;;;;;;;;;;;16.61;63.42;101862.40;105050;1290;73119;-55
2023/09/26 02:42:19;;;;;;;;;;;;;;;16.60;63.49;101868.00;105006;1289;67211;-55
2023/09/26 02:45:06;;;;;;;;;;;;;;;16.58;63.56;101868.02;104986;1294;74168;-55
2023/09/26 02:47:52;;;;;;;;;;;;;;;16.56;63.75;101866.86;105831;1293;59809;-54
2023/09/26 02:50:38;;;;;;;;;;;;;;;16.52;63.80;101865.54;105001;1295;59844;-55
2023/09/26 02:53:25;;;;;;;;;;;;;;;16.48;64.09;101868.23;105005;1294;78771;-55
2023/09/26 02:56:11;;;;;;;;;;;;;;;16.45;63.85;101865.00;105022;1289;71047;-55
2023/09/26 02:58:57;;;;;;;;;;;;;;;16.42;64.06;101867.67;105028;1292;75467;-54
2023/09/26 03:01:44;;;;;;;;;;;;;;;16.41;63.98;101866.12;104988;1289;61397;-55
2023/09/26 03:04:30;;;;;;;;;;;;;;;16.37;64.23;101867.95;105001;1290;61170;-54
2023/09/26 03:07:16;;;;;;;;;;;;;;;16.35;64.41;101864.66;105033;1290;75202;-55
2023/09/26 03:10:02;;;;;;;;;;;;;;;16.36;64.24;101861.69;105014;1295;67220;-55
2023/09/26 03:12:48;;;;;;;;;;;;;;;16.34;64.48;101862.60;105297;1292;71726;-55
2023/09/26 03:15:34;;;;;;;;;;;;;;;16.33;64.52;101861.41;106194;1289;59433;-56
2023/09/26 03:18:20;;;;;;;;;;;;;;;16.33;64.72;101861.42;105552;1290;61237;-55
2023/09/26 03:21:07;;;;;;;;;;;;;;;16.33;64.69;101862.45;104984;1290;75318;-54
2023/09/26 03:23:52;;;;;;;;;;;;;;;16.33;64.60;101861.92;106269;1289;66334;-56
2023/09/26 03:26:38;;;;;;;;;;;;;;;16.31;64.78;101855.52;105032;1295;72182;-55
2023/09/26 03:29:24;;;;;;;;;;;;;;;16.27;64.65;101854.05;104942;1291;61579;-55
2023/09/26 03:32:11;;;;;;;;;;;;;;;16.22;64.73;101855.00;104995;1292;59119;-56
2023/09/26 03:34:57;;;;;;;;;;;;;;;16.22;64.73;101852.04;105005;1290;73207;-55
2023/09/26 03:37:43;;;;;;;;;;;;;;;16.19;64.42;101854.52;104949;1294;67316;-55
2023/09/26 03:40:29;;;;;;;;;;;;;;;16.16;64.86;101854.95;104941;1303;71268;-55
2023/09/26 03:43:16;;;;;;;;;;;;;;;16.15;65.21;101857.05;104917;1295;61265;-55
2023/09/26 03:46:03;;;;;;;;;;;;;;;16.15;65.08;101853.39;104929;1290;61119;-54
2023/09/26 03:48:50;;;;;;;;;;;;;;;16.14;65.07;101851.69;104986;1292;73500;-55
2023/09/26 03:51:36;;;;;;;;;;;;;;;16.12;65.52;101858.35;104948;1289;69776;-55
2023/09/26 03:54:22;;;;;;;;;;;;;;;16.12;65.19;101856.60;104892;1295;71560;-55
2023/09/26 03:57:08;;;;;;;;;;;;;;;16.12;65.32;101858.33;104948;1294;62900;-55
2023/09/26 03:59:54;;;;;;;;;;;;;;;16.13;65.36;101859.54;104929;1289;61128;-55
2023/09/26 04:02:40;;;;;;;;;;;;;;;16.13;65.59;101856.91;105000;1291;73255;-55
2023/09/26 04:05:27;;;;;;;;;;;;;;;16.15;65.63;101857.23;104930;1289;70641;-55
2023/09/26 04:08:14;;;;;;;;;;;;;;;16.16;65.82;101855.47;105009;1289;71332;-55
2023/09/26 04:11:00;;;;;;;;;;;;;;;16.17;65.70;101850.93;104927;1292;61581;-55
2023/09/26 04:13:46;;;;;;;;;;;;;;;16.17;65.21;101850.92;104934;1289;61247;-55
2023/09/26 04:16:33;;;;;;;;;;;;;;;16.16;65.69;101846.41;104945;1290;73423;-55
2023/09/26 04:19:19;;;;;;;;;;;;;;;16.18;65.74;101848.30;104897;1290;67240;-55
2023/09/26 04:22:05;;;;;;;;;;;;;;;16.19;65.93;101852.11;104859;1294;71647;-55
2023/09/26 04:24:51;;;;;;;;;;;;;;;16.20;66.06;101850.00;104907;1293;62040;-55
2023/09/26 04:27:37;;;;;;;;;;;;;;;16.21;65.99;101854.15;104939;1290;61176;-55
2023/09/26 04:30:24;;;;;;;;;;;;;;;16.21;65.89;101855.72;104942;1291;77594;-55
2023/09/26 04:33:10;;;;;;;;;;;;;;;16.20;66.19;101856.95;104937;1292;67403;-55
2023/09/26 04:35:57;;;;;;;;;;;;;;;16.19;66.35;101854.02;104855;1289;70394;-54
2023/09/26 04:38:43;;;;;;;;;;;;;;;16.19;66.21;101856.28;104845;1290;61218;-55
2023/09/26 04:41:29;;;;;;;;;;;;;;;16.19;66.27;101856.11;104861;1295;62722;-55
2023/09/26 04:44:15;;;;;;;;;;;;;;;16.17;66.92;101857.02;104940;1292;73308;-55
2023/09/26 04:47:01;;;;;;;;;;;;;;;16.17;66.62;101857.20;104823;1290;67381;-55
2023/09/26 04:49:47;;;;;;;;;;;;;;;16.18;66.72;101859.79;104959;1292;71806;-55
2023/09/26 04:52:34;;;;;;;;;;;;;;;16.18;66.84;101851.41;104949;1291;61103;-55
2023/09/26 04:55:21;;;;;;;;;;;;;;;16.20;66.90;101851.56;104859;1291;61839;-55
2023/09/26 04:58:08;;;;;;;;;;;;;;;16.21;66.83;101846.85;104884;1292;74135;-54
2023/09/26 05:00:53;;;;;;;;;;;;;;;16.22;66.93;101848.23;106121;1290;66869;-56
2023/09/26 05:03:41;;;;;;;;;;;;;;;16.22;66.98;101846.66;105404;1291;72629;-55
2023/09/26 05:06:29;;;;;;;;;;;;;;;16.21;66.61;101848.23;104781;1289;61297;-55
2023/09/26 05:09:15;;;;;;;;;;;;;;;16.21;66.36;101847.55;104765;1293;61906;-55
2023/09/26 05:12:01;;;;;;;;;;;;;;;16.19;66.05;101847.91;104867;1290;73174;-56
2023/09/26 05:14:47;;;;;;;;;;;;;;;16.21;66.94;101846.32;104916;1289;67225;-56
2023/09/26 05:17:33;;;;;;;;;;;;;;;16.26;67.17;101846.58;104916;1291;71181;-55
2023/09/26 05:20:19;;;;;;;;;;;;;;;16.30;67.19;101841.98;104661;1289;329147;-56
2023/09/26 05:23:06;;;;;;;;;;;;;;;16.34;67.30;101837.89;104857;1291;61301;-55
2023/09/26 05:25:52;;;;;;;;;;;;;;;16.38;67.24;101843.38;104850;1290;73251;-56
2023/09/26 05:28:39;;;;;;;;;;;;;;;16.40;66.90;101843.86;104913;1291;67275;-55
2023/09/26 05:31:28;;;;;;;;;;;;;;;16.44;67.53;101846.56;104898;1290;71148;-55
2023/09/26 05:34:14;;;;;;;;;;;;;;;16.48;67.58;101845.08;104650;1290;61271;-55
2023/09/26 05:37:00;;;;;;;;;;;;;;;16.54;67.59;101840.80;104829;1290;61182;-57
2023/09/26 05:39:46;;;;;;;;;;;;;;;16.59;67.59;101843.99;104815;1292;73340;-57
2023/09/26 05:42:33;;;;;;;;;;;;;;;16.63;67.62;101841.98;104814;1289;72049;-57
2023/09/26 05:45:19;;;;;;;;;;;;;;;16.69;67.76;101845.16;104873;1294;71411;-56
2023/09/26 05:48:06;;;;;;;;;;;;;;;16.78;67.59;101849.16;104868;1289;61385;-60
2023/09/26 05:51:10;;;;;;;;;;;;;;;16.89;67.68;101849.95;104776;1289;61267;-57
2023/09/26 05:53:56;;;;;;;;;;;;;;;17.08;67.60;101850.40;104816;1291;73110;-57
2023/09/26 05:56:44;;;;;;;;;;;;;;;17.29;67.63;101849.35;104908;1291;67244;-56
2023/09/26 05:59:30;;;;;;;;;;;;;;;17.52;68.58;101850.52;104846;1292;71196;-56
2023/09/26 06:02:16;;;;;;;;;;;;;;;17.74;67.98;101852.92;104859;1292;62766;-57
2023/09/26 06:05:03;;;;;;;;;;;;;;;17.95;67.68;101859.88;104862;1292;62904;-57
2023/09/26 06:07:51;;;;;;;;;;;;;;;18.19;67.71;101857.83;104841;1294;74407;-57
2023/09/26 06:10:37;;;;;;;;;;;;;;;18.45;67.54;101861.62;104945;1289;72147;-56
2023/09/26 06:13:23;;;;;;;;;;;;;;;18.69;67.39;101863.89;104841;1289;72326;-56
2023/09/26 06:16:10;;;;;;;;;;;;;;;18.80;67.13;101862.65;104939;1289;61301;-56
2023/09/26 06:18:56;;;;;;;;;;;;;;;18.80;67.08;101865.30;104948;1289;61398;-56
2023/09/26 06:21:42;;;;;;;;;;;;;;;18.73;68.17;101864.64;104932;1289;73361;-57
2023/09/26 06:24:28;;;;;;;;;;;;;;;18.60;67.36;101859.63;104939;1289;67639;-57
2023/09/26 06:27:14;;;;;;;;;;;;;;;18.60;67.40;101860.33;104902;1289;71276;-56
2023/09/26 06:30:00;;;;;;;;;;;;;;;18.64;67.45;101856.37;104845;1290;62532;-57
2023/09/26 06:32:47;;;;;;;;;;;;;;;18.65;67.41;101858.45;104998;1289;62885;-56
2023/09/26 06:35:33;;;;;;;;;;;;;;;18.62;67.43;101857.84;104902;1289;74105;-56
2023/09/26 06:38:19;;;;;;;;;;;;;;;18.63;67.53;101855.17;104972;1288;69905;-55
2023/09/26 06:41:06;;;;;;;;;;;;;;;18.73;67.57;101857.48;104870;1292;70328;-56
2023/09/26 06:43:52;;;;;;;;;;;;;;;18.83;67.51;101857.70;105344;1289;61265;-57
2023/09/26 06:46:38;;;;;;;;;;;;;;;18.89;67.89;101860.30;104902;1292;59736;-56
2023/09/26 06:49:24;;;;;;;;;;;;;;;18.89;67.50;101863.61;104919;1290;73171;-57
2023/09/26 06:52:10;;;;;;;;;;;;;;;18.95;67.37;101862.91;104932;1289;67268;-57
2023/09/26 06:54:57;;;;;;;;;;;;;;;19.07;67.62;101862.20;104898;1289;71255;-56
2023/09/26 06:57:43;;;;;;;;;;;;;;;19.17;67.39;101856.80;104877;1294;62041;-56
2023/09/26 07:00:29;;;;;;;;;;;;;;;19.25;67.43;101858.12;104910;1289;61503;-57
2023/09/26 07:03:15;;;;;;;;;;;;;;;19.30;67.49;101860.89;104944;1289;73382;-56
2023/09/26 07:06:07;;;;;;;;;;;;;;;19.27;67.36;101858.91;104880;1291;67492;-57
2023/09/26 07:08:55;;;;;;;;;;;;;;;19.26;67.56;101861.36;106203;1288;72196;-55
2023/09/26 07:11:41;;;;;;;;;;;;;;;19.37;67.77;101864.86;105791;1290;332122;-57
2023/09/26 07:14:31;;;;;;;;;;;;;;;19.48;67.55;101866.26;106228;1289;59284;-58
2023/09/26 07:17:17;;;;;;;;;;;;;;;19.52;67.35;101869.14;106179;1289;74556;-57
2023/09/26 07:20:04;;;;;;;;;;;;;;;19.55;67.43;101869.41;106260;1289;67432;-57
2023/09/26 07:22:50;;;;;;;;;;;;;;;19.60;67.52;101867.12;106199;1289;72553;-57
2023/09/26 07:25:36;;;;;;;;;;;;;;;19.70;67.52;101867.81;105352;1289;61190;-56
2023/09/26 07:28:22;;;;;;;;;;;;;;;19.80;67.42;101870.95;104932;1294;61147;-56
2023/09/26 07:31:10;;;;;;;;;;;;;;;19.81;67.53;101870.57;104911;1289;73243;-55
2023/09/26 07:33:56;;;;;;;;;;;;;;;19.86;67.74;101868.66;105807;1289;67439;-56
2023/09/26 07:36:42;;;;;;;;;;;;;;;19.95;67.77;101863.98;104905;1288;74823;-56
2023/09/26 07:39:28;;;;;;;;;;;;;;;20.05;67.59;101859.58;104901;1289;61328;-55
2023/09/26 07:42:14;;;;;;;;;;;;;;;20.12;67.50;101859.66;104879;1288;61138;-56
2023/09/26 07:45:00;;;;;;;;;;;;;;;20.21;67.54;101860.22;104900;1289;76095;-56
2023/09/26 07:47:46;;;;;;;;;;;;;;;20.32;67.44;101860.85;104909;1289;70071;-56
2023/09/26 07:50:33;;;;;;;;;;;;;;;20.41;67.36;101858.98;104960;1289;74156;-56
2023/09/26 07:53:19;;;;;;;;;;;;;;;20.50;67.37;101860.02;104878;1289;61177;-56
2023/09/26 07:56:05;;;;;;;;;;;;;;;20.61;67.32;101861.02;104940;1288;61177;-56
2023/09/26 07:58:52;;;;;;;;;;;;;;;20.72;67.43;101860.44;104981;1291;73287;-56
2023/09/26 08:01:38;;;;;;;;;;;;;;;20.76;67.37;101855.91;104965;1289;67322;-56
2023/09/26 08:04:24;;;;;;;;;;;;;;;20.80;67.40;101853.64;104867;1289;71130;-56
2023/09/26 08:07:10;;;;;;;;;;;;;;;20.95;67.52;101855.31;104889;1292;61288;-56
2023/09/26 08:10:00;;;;;;;;;;;;;;;21.13;67.19;101858.97;104954;1289;61164;-56
2023/09/26 08:12:46;;;;;;;;;;;;;;;21.28;67.29;101857.51;104844;1293;76027;-56
2023/09/26 08:15:34;;;;;;;;;;;;;;;21.45;67.14;101859.25;104931;1289;68960;-57
2023/09/26 08:18:20;;;;;;;;;;;;;;;21.70;67.18;101858.16;104883;1293;71250;-56
2023/09/26 08:21:06;;;;;;;;;;;;;;;21.92;66.38;101858.25;104947;1288;61984;-56
2023/09/26 08:23:53;;;;;;;;;;;;;;;21.93;66.60;101859.45;104924;1290;61212;-56
2023/09/26 08:26:40;;;;;;;;;;;;;;;22.09;67.06;101854.21;104922;1289;73451;-56
2023/09/26 08:29:26;;;;;;;;;;;;;;;22.33;66.94;101858.94;104939;1289;68019;-57
2023/09/26 08:32:12;;;;;;;;;;;;;;;22.48;65.45;101854.88;104842;1292;71883;-57
2023/09/26 08:34:58;;;;;;;;;;;;;;;22.62;66.58;101852.48;104906;1288;61292;-57
2023/09/26 08:37:44;;;;;;;;;;;;;;;22.94;65.54;101855.38;104922;1288;59586;-56
2023/09/26 08:40:32;;;;;;;;;;;;;;;23.24;66.48;101857.23;104910;1289;73314;-56
2023/09/26 08:43:26;;;;;;;;;;;;;;;23.69;66.64;101853.92;104917;1288;68585;-56
2023/09/26 08:46:12;;;;;;;;;;;;;;;24.13;66.37;101850.38;104893;1292;72419;-56
2023/09/26 08:48:59;;;;;;;;;;;;;;;24.39;66.28;101850.38;104779;1288;61391;-57
2023/09/26 08:51:45;;;;;;;;;;;;;;;24.56;66.41;101845.91;104935;1289;60719;-56
2023/09/26 08:54:31;;;;;;;;;;;;;;;24.85;66.33;101843.94;104924;1288;74094;-57
2023/09/26 08:57:18;;;;;;;;;;;;;;;25.35;66.07;101844.79;104876;1292;67436;-57
2023/09/26 09:00:05;;;;;;;;;;;;;;;25.76;65.99;101843.25;104809;1289;71284;-57
2023/09/26 09:02:51;;;;;;;;;;;;;;;26.05;65.97;101840.04;106166;1288;59273;-57
2023/09/26 09:05:38;;;;;;;;;;;;;;;26.27;66.05;101839.53;105551;1290;61269;-57
2023/09/26 09:08:25;;;;;;;;;;;;;;;26.78;66.08;101837.36;104862;1291;78899;-56
2023/09/26 09:11:12;;;;;;;;;;;;;;;27.04;65.94;101840.09;104907;1292;69270;-57
2023/09/26 09:13:58;;;;;;;;;;;;;;;26.99;65.22;101838.14;104892;1290;71882;-56
2023/09/26 09:16:53;;;;;;;;;;;;;;;26.96;65.30;101835.67;104831;1289;61290;-56
2023/09/26 09:19:50;;;;;;;;;;;;;;;26.87;65.27;101835.70;104873;1289;59151;-55
2023/09/26 09:22:36;;;;;;;;;;;;;;;26.63;64.23;101836.39;106239;1289;73290;-57
2023/09/26 09:25:29;;;;;;;;;;;;;;;26.39;64.77;101831.93;105539;1290;67309;-56
2023/09/26 09:28:19;;;;;;;;;;;;;;;26.14;64.62;101834.55;104904;1289;71090;-56
2023/09/26 09:31:05;;;;;;;;;;;;;;;25.75;64.27;101838.52;104909;1290;61145;-56
2023/09/26 09:33:52;;;;;;;;;;;;;;;25.36;63.61;101833.96;104855;1289;61459;-56
2023/09/26 09:36:38;;;;;;;;;;;;;;;25.02;63.87;101828.66;104864;1292;74962;-55
2023/09/26 09:39:24;;;;;;;;;;;;;;;24.78;63.74;101825.86;104932;1289;67299;-55
2023/09/26 09:42:10;;;;;;;;;;;;;;;24.50;63.27;101826.02;104788;1294;70289;-56
2023/09/26 09:44:56;;;;;;;;;;;;;;;24.14;63.24;101828.80;104904;1289;61563;-55
2023/09/26 09:47:47;;;;;;;;;;;;;;;23.88;63.02;101828.29;104892;1289;61177;-55
2023/09/26 09:50:35;;;;;;;;;;;;;;;23.69;62.96;101829.44;104925;1292;72202;-56
2023/09/26 09:53:24;;;;;;;;;;;;;;;23.61;62.76;101826.16;104889;1289;69966;-55
2023/09/26 09:56:18;;;;;;;;;;;;;;;23.55;62.63;101824.89;104884;1289;73950;-56
2023/09/26 09:59:08;;;;;;;;;;;;;;;23.58;62.50;101828.98;104901;1290;61177;-55
2023/09/26 10:01:55;;;;;;;;;;;;;;;23.70;62.35;101820.41;104922;1290;61345;-55
2023/09/26 10:04:42;;;;;;;;;;;;;;;23.78;62.21;101822.30;104940;1294;73448;-55
2023/09/26 10:07:29;;;;;;;;;;;;;;;23.75;62.00;101823.52;104895;1288;70840;-55
2023/09/26 10:10:16;;;;;;;;;;;;;;;23.63;61.87;101820.61;104956;1289;71814;-55
2023/09/26 10:13:03;;;;;;;;;;;;;;;23.55;61.92;101821.04;104807;1289;61311;-54
2023/09/26 10:16:16;;;;;;;;;;;;;;;23.64;62.01;101821.08;106218;1289;59324;-56
2023/09/26 10:19:03;;;;;;;;;;;;;;;23.65;61.43;101818.05;105005;1291;73862;-63
2023/09/26 10:21:49;;;;;;;;;;;;;;;23.61;61.36;101820.54;104952;1289;66193;-55
2023/09/26 10:24:44;;;;;;;;;;;;;;;23.60;61.58;101816.16;104894;1289;71207;-55
2023/09/26 10:27:30;;;;;;;;;;;;;;;23.71;61.49;101811.23;104909;1293;59240;-55
2023/09/26 10:30:19;;;;;;;;;;;;;;;23.79;61.52;101809.06;104876;1289;61360;-56
2023/09/26 10:33:05;;;;;;;;;;;;;;;23.95;61.25;101809.42;104942;1291;72277;-56
2023/09/26 10:36:00;;;;;;;;;;;;;;;24.01;60.49;101810.33;104910;1289;66274;-55
2023/09/26 10:39:00;;;;;;;;;;;;;;;24.04;60.97;101806.41;104897;1289;71303;-56
2023/09/26 10:41:46;;;;;;;;;;;;;;;24.17;60.81;101804.85;104851;1289;61276;-56
2023/09/26 10:44:32;;;;;;;;;;;;;;;24.24;60.78;101798.83;104900;1289;61055;-56
2023/09/26 10:47:21;;;;;;;;;;;;;;;24.48;61.19;101800.20;104841;1289;75098;-56
2023/09/26 10:50:09;;;;;;;;;;;;;;;25.48;61.38;101800.89;104855;1289;68996;-56
2023/09/26 10:52:55;;;;;;;;;;;;;;;26.84;60.92;101802.11;106200;1289;73077;-57
2023/09/26 10:55:41;;;;;;;;;;;;;;;27.63;60.98;101798.95;105613;1289;61376;-57
2023/09/26 10:58:30;;;;;;;;;;;;;;;28.35;60.76;101797.36;104865;1289;60935;-56
2023/09/26 11:01:16;;;;;;;;;;;;;;;28.95;60.07;101795.05;104921;1290;73334;-56
2023/09/26 11:04:03;;;;;;;;;;;;;;;29.35;57.56;101792.52;104950;1289;68261;-57
2023/09/26 11:06:49;;;;;;;;;;;;;;;29.79;54.75;101794.08;105649;1289;73297;-57
2023/09/26 11:09:40;;;;;;;;;;;;;;;29.61;56.64;101796.19;104854;1289;61178;-57
2023/09/26 11:12:26;;;;;;;;;;;;;;;30.77;55.24;101793.14;104770;1289;61065;-58
2023/09/26 11:15:12;;;;;;;;;;;;;;;31.03;50.13;101796.64;104887;1289;73509;-58
2023/09/26 11:17:58;;;;;;;;;;;;;;;31.59;54.88;101785.77;104929;1293;67199;-58
2023/09/26 11:20:45;;;;;;;;;;;;;;;32.42;50.91;101782.92;104927;1289;71276;-58
2023/09/26 11:23:39;;;;;;;;;;;;;;;32.63;54.33;101781.68;104919;1289;61132;-57
2023/09/26 11:26:25;;;;;;;;;;;;;;;33.77;55.39;101780.35;104950;1290;61160;-58
2023/09/26 11:29:12;;;;;;;;;;;;;;;34.38;53.82;101775.48;104903;1289;73306;-58
2023/09/26 11:31:58;;;;;;;;;;;;;;;34.16;50.05;101775.29;104972;1289;67295;-58
2023/09/26 11:34:44;;;;;;;;;;;;;;;32.67;44.99;101768.45;104913;1289;73931;-57
2023/09/26 11:37:31;;;;;;;;;;;;;;;32.70;49.67;101768.27;104965;1289;61173;-58
2023/09/26 11:40:24;;;;;;;;;;;;;;;32.94;51.36;101764.41;104914;1288;61135;-57
2023/09/26 11:43:10;;;;;;;;;;;;;;;33.34;49.50;101764.28;106267;1288;73410;-58
2023/09/26 11:46:02;;;;;;;;;;;;;;;33.68;49.87;101763.90;105325;1290;68424;-57
2023/09/26 11:48:48;;;;;;;;;;;;;;;33.16;48.35;101759.31;104959;1289;73101;-58
2023/09/26 11:51:34;;;;;;;;;;;;;;;33.14;50.06;101756.47;104924;1290;61773;-57
2023/09/26 11:54:21;;;;;;;;;;;;;;;33.70;49.42;101754.89;104924;1289;61285;-57
2023/09/26 11:57:08;;;;;;;;;;;;;;;34.21;49.33;101750.79;104939;1290;73301;-57
2023/09/26 11:59:54;;;;;;;;;;;;;;;34.81;48.55;101745.55;104903;1288;69974;-57
2023/09/26 12:02:42;;;;;;;;;;;;;;;34.83;47.33;101744.11;104943;1289;74050;-57
2023/09/26 12:05:28;;;;;;;;;;;;;;;35.11;48.25;101744.98;104941;1289;61581;-59
2023/09/26 12:08:14;;;;;;;;;;;;;;;35.70;48.21;101743.24;104965;1288;61282;-60
2023/09/26 12:11:00;;;;;;;;;;;;;;;35.87;47.13;101741.34;104937;1292;73436;-59
2023/09/26 12:13:47;;;;;;;;;;;;;;;36.05;47.27;101737.99;104963;1289;67276;-57
2023/09/26 12:16:33;;;;;;;;;;;;;;;36.22;46.69;101733.81;104919;1290;71221;-57
2023/09/26 12:19:20;;;;;;;;;;;;;;;36.48;46.89;101735.60;104919;1289;61404;-57
2023/09/26 12:22:06;;;;;;;;;;;;;;;35.79;44.42;101728.49;104948;1289;61183;-58
2023/09/26 12:24:52;;;;;;;;;;;;;;;35.15;45.84;101733.59;104946;1292;73073;-57
2023/09/26 12:27:38;;;;;;;;;;;;;;;35.20;44.77;101731.91;104937;1289;67322;-56
2023/09/26 12:30:24;;;;;;;;;;;;;;;34.95;42.66;101728.73;104918;1292;75404;-57
2023/09/26 12:33:10;;;;;;;;;;;;;;;34.58;42.80;101726.84;104993;1289;61208;-57
2023/09/26 12:35:58;;;;;;;;;;;;;;;34.20;43.36;101722.08;104904;1290;61474;-57
2023/09/26 12:38:44;;;;;;;;;;;;;;;34.06;43.39;101719.30;104942;1289;73213;-57
2023/09/26 12:41:30;;;;;;;;;;;;;;;33.91;42.98;101719.56;104965;1289;69016;-57
2023/09/26 12:44:17;;;;;;;;;;;;;;;33.69;42.50;101721.91;104975;1289;71134;-57
2023/09/26 12:47:03;;;;;;;;;;;;;;;33.52;42.40;101717.45;104939;1292;61285;-57
2023/09/26 12:49:49;;;;;;;;;;;;;;;33.39;42.52;101713.01;104968;1289;61127;-57
2023/09/26 12:52:36;;;;;;;;;;;;;;;33.33;42.08;101709.46;104961;1289;75385;-56
2023/09/26 12:55:22;;;;;;;;;;;;;;;33.14;41.74;101711.27;104959;1291;67313;-57
2023/09/26 12:58:08;;;;;;;;;;;;;;;32.89;41.38;101705.58;104964;1289;73394;-57
2023/09/26 13:00:54;;;;;;;;;;;;;;;32.49;41.30;101702.48;104958;1289;61190;-56
2023/09/26 13:03:40;;;;;;;;;;;;;;;32.35;41.51;101702.90;104962;1289;64035;-57
2023/09/26 13:06:27;;;;;;;;;;;;;;;32.27;41.58;101699.84;104962;1289;73242;-56
2023/09/26 13:09:14;;;;;;;;;;;;;;;32.04;41.15;101695.88;104940;1291;70003;-57
2023/09/26 13:12:00;;;;;;;;;;;;;;;31.35;41.22;101692.55;104952;1289;71916;-56
2023/09/26 13:14:46;;;;;;;;;;;;;;;31.10;41.57;101689.91;104929;1289;61126;-56
2023/09/26 13:17:32;;;;;;;;;;;;;;;30.91;41.88;101686.34;104907;1290;61250;-56
2023/09/26 13:20:19;;;;;;;;;;;;;;;30.78;41.81;101681.58;104830;1292;75992;-56
2023/09/26 13:23:05;;;;;;;;;;;;;;;30.56;41.91;101680.61;104827;1289;67682;-56
2023/09/26 13:25:51;;;;;;;;;;;;;;;30.30;41.83;101681.88;104899;1290;72593;-57
2023/09/26 13:28:37;;;;;;;;;;;;;;;29.89;41.57;101682.38;104894;1289;61410;-57
2023/09/26 13:31:24;;;;;;;;;;;;;;;29.46;41.66;101676.92;104895;1289;61302;-56
2023/09/26 13:34:10;;;;;;;;;;;;;;;29.05;41.77;101675.88;104933;1289;75955;-56
2023/09/26 13:36:56;;;;;;;;;;;;;;;28.61;41.96;101676.55;104857;1293;69986;-56
2023/09/26 13:39:42;;;;;;;;;;;;;;;28.29;42.09;101669.77;104902;1289;76823;-55
2023/09/26 13:42:28;;;;;;;;;;;;;;;28.15;42.15;101663.85;104952;1290;61639;-56
2023/09/26 13:45:15;;;;;;;;;;;;;;;27.99;42.11;101662.07;104846;1289;62511;-55
2023/09/26 13:48:01;;;;;;;;;;;;;;;27.83;42.20;101659.33;104927;1289;77352;-56
2023/09/26 13:50:47;;;;;;;;;;;;;;;27.74;42.49;101658.17;104926;1289;67777;-56
2023/09/26 13:53:34;;;;;;;;;;;;;;;27.65;42.18;101652.77;104968;1289;77021;-56
2023/09/26 13:56:20;;;;;;;;;;;;;;;27.49;42.70;101652.48;104957;1289;61282;-55
2023/09/26 13:59:06;;;;;;;;;;;;;;;27.48;42.74;101652.77;104926;1289;61190;-55
2023/09/26 14:01:52;;;;;;;;;;;;;;;27.53;42.66;101651.66;104934;1289;73340;-56
2023/09/26 14:04:38;;;;;;;;;;;;;;;27.51;42.79;101650.45;104898;1292;67648;-55